createdAt,value
2023-01-10T00:01:51.560Z,100.00
2023-01-10T00:06:53.257Z,100.00
2023-01-10T00:11:54.781Z,100.00
2023-01-10T00:16:56.452Z,100.00
2023-01-10T00:21:58.048Z,100.00
2023-01-10T00:26:59.714Z,100.00
2023-01-10T00:32:01.329Z,100.00
2023-01-10T00:37:02.843Z,100.00
2023-01-10T00:42:04.886Z,100.00
2023-01-10T00:47:06.682Z,100.00
2023-01-10T00:52:08.218Z,100.00
2023-01-10T00:57:09.731Z,100.00
2023-01-10T01:02:11.298Z,100.00
2023-01-10T01:07:13.413Z,100.00
2023-01-10T01:12:15.011Z,100.00
2023-01-10T01:17:16.587Z,100.00
2023-01-10T01:22:18.293Z,100.00
2023-01-10T01:27:19.848Z,100.00
2023-01-10T01:32:21.403Z,100.00
2023-01-10T01:37:23.206Z,100.00
2023-01-10T01:42:29.874Z,100.00
2023-01-10T01:47:31.478Z,100.00
2023-01-10T01:52:34.910Z,100.00
2023-01-10T01:57:37.318Z,100.00
2023-01-10T02:02:57.747Z,100.00
2023-01-10T02:08:03.518Z,100.00
2023-01-10T02:13:07.697Z,100.00
2023-01-10T02:18:09.926Z,100.00
2023-01-10T02:23:30.404Z,100.00
2023-01-10T02:29:05.673Z,100.00
2023-01-10T02:34:24.480Z,100.00
2023-01-10T02:39:31.797Z,100.00
2023-01-10T02:44:45.092Z,100.00
2023-01-10T02:49:48.824Z,100.00
2023-01-10T02:54:53.667Z,100.00
2023-01-10T03:00:19.762Z,100.00
2023-01-10T03:05:36.225Z,100.00
2023-01-10T03:10:59.277Z,100.00
2023-01-10T03:16:04.204Z,100.00
2023-01-10T03:21:07.927Z,100.00
2023-01-10T03:26:11.274Z,100.00
2023-01-10T03:31:26.518Z,100.00
2023-01-10T03:36:41.119Z,100.00
2023-01-10T03:42:08.007Z,100.00
2023-01-10T03:47:18.497Z,100.00
2023-01-10T03:52:21.338Z,100.00
2023-01-10T03:57:24.225Z,100.00
2023-01-10T04:02:30.883Z,100.00
2023-01-10T04:07:32.429Z,100.00
2023-01-10T04:12:33.990Z,100.00
2023-01-10T04:17:35.585Z,100.00
2023-01-10T04:22:37.132Z,100.00
2023-01-10T04:27:38.611Z,100.00
2023-01-10T04:32:40.113Z,100.00
2023-01-10T04:37:42.616Z,100.00
2023-01-10T04:42:44.092Z,100.00
2023-01-10T04:47:50.691Z,100.00
2023-01-10T04:52:53.858Z,100.00
2023-01-10T04:57:55.401Z,100.00
2023-01-10T05:02:57.722Z,100.00
2023-01-10T05:07:59.382Z,100.00
2023-01-10T05:13:00.940Z,100.00
2023-01-10T05:18:02.564Z,100.00
2023-01-10T05:23:04.236Z,100.00
2023-01-10T05:28:05.850Z,100.00
2023-01-10T05:33:07.502Z,100.00
2023-01-10T05:38:10.240Z,100.00
2023-01-10T05:43:11.845Z,100.00
2023-01-10T05:48:13.527Z,100.00
2023-01-10T05:53:15.077Z,100.00
2023-01-10T05:58:16.721Z,100.00
2023-01-10T06:03:18.985Z,100.00
2023-01-10T06:08:21.012Z,100.00
2023-01-10T06:13:23.534Z,100.00
2023-01-10T06:18:25.270Z,100.00
2023-01-10T06:23:26.785Z,100.00
2023-01-10T06:28:28.344Z,100.00
2023-01-10T06:33:30.348Z,100.00
2023-01-10T06:38:31.867Z,100.00
2023-01-10T06:43:33.476Z,100.00
2023-01-10T06:48:35.983Z,100.00
2023-01-10T06:53:37.656Z,100.00
2023-01-10T06:58:39.816Z,100.00
2023-01-10T07:03:41.706Z,100.00
2023-01-10T07:08:45.128Z,100.00
2023-01-10T07:13:46.634Z,100.00
2023-01-10T07:18:48.444Z,100.00
2023-01-10T07:23:50.627Z,100.00
2023-01-10T07:28:52.212Z,100.00
2023-01-10T07:33:53.996Z,100.00
2023-01-10T07:38:55.573Z,100.00
2023-01-10T07:43:57.277Z,100.00
2023-01-10T07:48:58.949Z,100.00
2023-01-10T07:54:00.530Z,100.00
2023-01-10T07:59:02.241Z,100.00
2023-01-10T08:04:03.809Z,100.00
2023-01-10T08:09:05.504Z,100.00
2023-01-10T08:14:07.117Z,100.00
2023-01-10T08:19:08.790Z,100.00
2023-01-10T08:24:10.533Z,100.00
2023-01-10T08:29:12.065Z,100.00
2023-01-10T08:34:13.868Z,100.00
2023-01-10T08:39:15.530Z,100.00
2023-01-10T08:44:17.294Z,100.00
2023-01-10T08:49:18.878Z,100.00
2023-01-10T08:54:20.462Z,100.00
2023-01-10T08:59:22.065Z,100.00
2023-01-10T09:04:24.205Z,100.00
2023-01-10T09:09:25.857Z,100.00
2023-01-10T09:14:27.531Z,100.00
2023-01-10T09:19:29.182Z,100.00
2023-01-10T09:24:30.881Z,100.00
2023-01-10T09:29:32.700Z,100.00
2023-01-10T09:34:34.748Z,100.00
2023-01-10T09:39:36.295Z,100.00
2023-01-10T09:44:44.017Z,100.00
2023-01-10T09:50:17.254Z,100.00
2023-01-10T09:55:32.472Z,100.00
2023-01-10T10:00:40.374Z,100.00
2023-01-10T10:05:42.232Z,100.00
2023-01-10T10:10:48.398Z,100.00
2023-01-10T10:16:06.366Z,100.00
2023-01-10T10:21:28.469Z,100.00
2023-01-10T10:26:52.569Z,100.00
2023-01-10T10:32:34.545Z,100.00
2023-01-10T10:37:50.220Z,100.00
2023-01-10T10:42:54.962Z,100.00
2023-01-10T10:48:03.663Z,100.00
2023-01-10T10:53:05.654Z,100.00
2023-01-10T10:58:09.819Z,100.00
2023-01-10T11:03:30.928Z,99.65
2023-01-10T11:08:37.937Z,97.73
2023-01-10T11:13:46.596Z,98.72
2023-01-10T11:19:19.817Z,98.35
2023-01-10T11:24:47.514Z,98.96
2023-01-10T11:30:06.802Z,97.38
2023-01-10T11:35:19.382Z,98.70
2023-01-10T11:40:22.763Z,95.79
2023-01-10T11:45:28.737Z,97.90
2023-01-10T11:50:33.197Z,100.00
2023-01-10T11:55:38.074Z,100.00
2023-01-10T12:00:42.370Z,98.66
2023-01-10T12:05:55.994Z,98.75
2023-01-10T12:11:02.986Z,99.08
2023-01-10T12:16:22.847Z,96.98
2023-01-10T12:21:30.920Z,96.38
2023-01-10T12:26:34.624Z,96.21
2023-01-10T12:31:39.354Z,97.95
2023-01-10T12:36:52.202Z,96.78
2023-01-10T12:42:14.004Z,96.87
2023-01-10T12:47:39.671Z,98.81
2023-01-10T12:52:46.860Z,98.08
2023-01-10T12:57:52.256Z,100.00
2023-01-10T13:02:57.473Z,98.30
2023-01-10T13:08:14.675Z,100.00
2023-01-10T13:13:40.537Z,98.36
2023-01-10T13:19:02.072Z,98.36
2023-01-10T13:24:16.837Z,100.00
2023-01-10T13:29:28.722Z,99.13
2023-01-10T13:34:35.880Z,100.00
2023-01-10T13:39:41.609Z,100.00
2023-01-10T13:45:01.250Z,99.97
2023-01-10T13:50:22.776Z,100.00
2023-01-10T13:55:32.751Z,100.00
2023-01-10T14:00:34.282Z,100.00
2023-01-10T14:05:36.073Z,100.00
2023-01-10T14:10:38.084Z,100.00
2023-01-10T14:15:45.942Z,100.00
2023-01-10T14:21:05.657Z,100.00
2023-01-10T14:26:18.016Z,100.00
2023-01-10T14:31:22.577Z,100.00
2023-01-10T14:36:41.837Z,100.00
2023-01-10T14:41:46.885Z,100.00
2023-01-10T14:46:50.268Z,100.00
2023-01-10T14:52:13.627Z,100.00
2023-01-10T14:57:22.897Z,100.00
2023-01-10T15:02:25.304Z,100.00
2023-01-10T15:07:28.566Z,100.00
2023-01-10T15:12:33.064Z,100.00
2023-01-10T15:17:36.691Z,100.00
2023-01-10T15:22:38.417Z,100.00
2023-01-10T15:27:45.888Z,100.00
2023-01-10T15:32:51.966Z,100.00
2023-01-10T15:37:57.983Z,100.00
2023-01-10T15:43:17.667Z,100.00
2023-01-10T15:48:41.713Z,100.00
2023-01-10T15:54:03.495Z,100.00
2023-01-10T15:59:21.110Z,100.00
2023-01-10T16:04:23.094Z,100.00
2023-01-10T16:09:24.638Z,100.00
2023-01-10T16:14:26.250Z,100.00
2023-01-10T16:19:28.228Z,100.00
2023-01-10T16:24:32.739Z,100.00
2023-01-10T16:29:34.428Z,100.00
2023-01-10T16:34:35.939Z,100.00
2023-01-10T16:39:37.452Z,100.00
2023-01-10T16:44:39.056Z,100.00
2023-01-10T16:49:40.602Z,100.00
2023-01-10T16:54:42.196Z,100.00
2023-01-10T16:59:43.806Z,100.00
2023-01-10T17:04:45.408Z,100.00
2023-01-10T17:09:46.954Z,100.00
2023-01-10T17:14:48.636Z,100.00
2023-01-10T17:19:50.204Z,100.00
2023-01-10T17:24:51.756Z,100.00
2023-01-10T17:29:53.489Z,100.00
2023-01-10T17:34:55.122Z,100.00
2023-01-10T17:39:56.673Z,100.00
2023-01-10T17:44:58.291Z,100.00
2023-01-10T17:49:59.826Z,100.00
2023-01-10T17:55:01.389Z,100.00
2023-01-10T18:00:03.625Z,100.00
2023-01-10T18:05:06.884Z,100.00
2023-01-10T18:10:08.909Z,100.00
2023-01-10T18:15:10.862Z,100.00
2023-01-10T18:20:12.483Z,100.00
2023-01-10T18:25:14.174Z,100.00
2023-01-10T18:30:18.667Z,100.00
2023-01-10T18:35:20.395Z,100.00
2023-01-10T18:40:22.039Z,100.00
2023-01-10T18:45:27.046Z,100.00
2023-01-10T18:50:28.573Z,100.00
2023-01-10T18:55:30.237Z,100.00
2023-01-10T19:00:31.765Z,100.00
2023-01-10T19:05:33.309Z,100.00
2023-01-10T19:10:57.258Z,100.00
2023-01-10T19:16:25.829Z,100.00
2023-01-10T19:21:29.864Z,100.00
2023-01-10T19:26:31.656Z,100.00
2023-01-10T19:31:33.267Z,100.00
2023-01-10T19:36:34.944Z,100.00
2023-01-10T19:41:37.936Z,100.00
2023-01-10T19:46:39.933Z,100.00
2023-01-10T19:51:41.441Z,100.00
2023-01-10T19:56:43.045Z,100.00
2023-01-10T20:01:44.691Z,100.00
2023-01-10T20:06:47.378Z,100.00
2023-01-10T20:11:49.038Z,100.00
2023-01-10T20:16:50.745Z,100.00
2023-01-10T20:21:52.299Z,100.00
2023-01-10T20:26:53.827Z,100.00
2023-01-10T20:31:55.529Z,100.00
2023-01-10T20:36:57.088Z,100.00
2023-01-10T20:41:58.957Z,100.00
2023-01-10T20:47:00.507Z,100.00
2023-01-10T20:52:02.095Z,100.00
2023-01-10T20:57:03.666Z,100.00
2023-01-10T21:02:05.229Z,100.00
2023-01-10T21:07:06.887Z,100.00
2023-01-10T21:12:22.065Z,100.00
2023-01-10T21:17:24.373Z,100.00
2023-01-10T21:22:25.986Z,100.00
2023-01-10T21:27:28.480Z,100.00
2023-01-10T21:32:29.999Z,100.00
2023-01-10T21:37:31.541Z,100.00
2023-01-10T21:42:33.134Z,100.00
2023-01-10T21:47:34.995Z,100.00
2023-01-10T21:52:36.829Z,100.00
2023-01-10T21:57:39.610Z,100.00
2023-01-10T22:02:41.396Z,100.00
2023-01-10T22:07:42.942Z,100.00
2023-01-10T22:12:44.437Z,100.00
2023-01-10T22:17:46.013Z,100.00
2023-01-10T22:22:47.563Z,100.00
2023-01-10T22:27:49.235Z,100.00
2023-01-10T22:32:55.138Z,100.00
2023-01-10T22:37:56.850Z,100.00
2023-01-10T22:42:58.433Z,100.00
2023-01-10T22:47:59.987Z,100.00
2023-01-10T22:53:02.107Z,100.00
2023-01-10T22:58:03.622Z,100.00
2023-01-10T23:03:05.152Z,100.00
2023-01-10T23:08:06.653Z,100.00
2023-01-10T23:13:08.138Z,100.00
2023-01-10T23:18:09.830Z,100.00
2023-01-10T23:23:11.335Z,100.00
2023-01-10T23:28:12.923Z,100.00
2023-01-10T23:33:14.519Z,100.00
2023-01-10T23:38:16.059Z,100.00
2023-01-10T23:43:17.715Z,100.00
2023-01-10T23:48:19.566Z,100.00
2023-01-10T23:53:21.390Z,100.00
2023-01-10T23:58:22.882Z,100.00
